Time;durP1;ratioP1;P1;durP2;ratioP2;P2;SDS_P1;SDS_P2;PMS_P1;PMS_P2;Temp;Humidity;BMP_temperature;BMP_pressure;BME280_temperature;BME280_humidity;BME280_pressure;Samples;Min_cycle;Max_cycle;Signal;HPM_P1;HPM_P2
2023/06/25 00:00:21;;;;;;;5.05;4.30;;;19.00;99.90;;;18.28;77.61;101749.69;4914143;28;20038;-73
2023/06/25 00:02:47;;;;;;;;;;;19.00;99.90;;;18.26;79.49;101754.25;4911698;28;20440;-72
2023/06/25 00:05:13;;;;;;;9.93;5.30;;;19.00;99.90;;;18.18;80.80;101741.38;4904998;29;20441;-73
2023/06/25 00:07:40;;;;;;;5.50;4.35;;;18.90;99.90;;;18.17;81.45;101739.69;4896287;28;20498;-72
2023/06/25 00:10:07;;;;;;;9.98;4.97;;;18.90;99.90;;;18.15;81.47;101746.06;4887083;28;20043;-72
2023/06/25 00:12:33;;;;;;;14.90;5.00;;;18.90;99.90;;;18.15;81.82;101744.25;4926574;28;20197;-73
2023/06/25 00:14:59;;;;;;;6.05;4.57;;;18.90;99.90;;;18.14;82.24;101744.34;4904363;28;20043;-72
2023/06/25 00:17:27;;;;;;;6.78;4.30;;;18.90;99.90;;;18.15;82.15;101741.59;4907057;28;20036;-72
2023/06/25 00:19:55;;;;;;;6.82;4.80;;;18.90;99.90;;;18.17;82.58;101745.00;4913468;28;20088;-73
2023/06/25 00:22:21;;;;;;;7.47;4.97;;;18.90;99.90;;;18.20;82.76;101747.47;4896557;28;20035;-72
2023/06/25 00:24:47;;;;;;;6.43;5.13;;;18.90;99.90;;;18.20;83.07;101741.31;4913769;28;20028;-72
2023/06/25 00:27:13;;;;;;;10.45;5.03;;;18.90;99.90;;;18.21;82.93;101740.38;4925988;28;20039;-73
2023/06/25 00:29:38;;;;;;;7.82;5.30;;;18.90;99.90;;;18.20;83.39;101741.31;4911531;28;20035;-72
2023/06/25 00:32:05;;;;;;;6.20;5.05;;;19.00;99.90;;;18.20;83.11;101741.31;4916871;28;20035;-72
2023/06/25 00:34:31;;;;;;;8.23;5.45;;;18.90;99.90;;;18.19;82.84;101740.44;4913282;28;20084;-73
2023/06/25 00:36:58;;;;;;;10.85;5.50;;;19.00;99.90;;;18.20;83.08;101739.47;4912206;28;20118;-73
2023/06/25 00:39:23;;;;;;;7.35;4.65;;;19.00;99.90;;;18.21;83.44;101737.69;4926696;28;20437;-72
2023/06/25 00:41:49;;;;;;;8.73;5.03;;;19.00;99.90;;;18.21;83.52;101737.69;4900017;29;20047;-72
2023/06/25 00:44:15;;;;;;;;;;;19.00;99.90;;;18.17;83.37;101734.34;4919536;28;20540;-73
2023/06/25 00:46:41;;;;;;;7.57;5.53;;;18.90;99.90;;;18.15;83.03;101741.59;4900428;28;19923;-73
2023/06/25 00:49:07;;;;;;;;;;;18.90;99.90;;;18.12;83.23;101735.59;4910567;28;20090;-72
2023/06/25 00:51:35;;;;;;;10.02;5.80;;;18.80;99.90;;;18.08;82.99;101742.94;4911178;28;20021;-73
2023/06/25 00:54:05;;;;;;;8.50;5.80;;;18.80;99.90;;;18.09;82.48;101744.63;4909403;28;20043;-72
2023/06/25 00:56:37;;;;;;;7.72;5.32;;;18.80;99.90;;;18.09;82.19;101744.63;4894967;29;20048;-72
2023/06/25 00:59:04;;;;;;;9.02;5.45;;;18.80;99.90;;;18.12;82.30;101751.56;4909434;28;20055;-73
2023/06/25 01:01:37;;;;;;;7.80;5.47;;;18.90;99.90;;;18.12;81.92;101743.56;4911987;28;20125;-73
2023/06/25 01:04:19;;;;;;;9.45;5.97;;;18.90;99.90;;;18.11;80.98;101745.41;4913805;28;20520;-74
2023/06/25 01:06:48;;;;;;;9.25;6.05;;;18.90;99.90;;;18.13;80.20;101740.81;4911637;28;20066;-73
2023/06/25 01:09:16;;;;;;;13.70;6.15;;;18.90;99.90;;;18.16;80.18;101747.78;4919477;28;20059;-73
2023/06/25 01:11:53;;;;;;;10.15;4.80;;;18.90;99.90;;;18.18;80.47;101745.88;4910478;28;20040;-72
2023/06/25 01:14:21;;;;;;;12.70;5.07;;;18.90;99.90;;;18.20;80.46;101744.81;4907773;28;20031;-73
2023/06/25 01:16:48;;;;;;;8.07;4.70;;;18.90;99.90;;;18.23;80.49;101741.13;4917212;28;20074;-72
2023/06/25 01:19:15;;;;;;;9.40;5.57;;;19.00;99.90;;;18.26;80.22;101743.59;4908008;28;20099;-72
2023/06/25 01:21:42;;;;;;;7.22;5.50;;;19.00;99.90;;;18.29;79.99;101739.88;4904766;28;20035;-74
2023/06/25 01:24:08;;;;;;;9.20;5.60;;;19.00;99.90;;;18.31;79.78;101735.28;4929477;28;20039;-72
2023/06/25 01:26:34;;;;;;;9.13;6.20;;;19.00;99.90;;;18.33;79.41;101736.06;4935518;28;20087;-73
2023/06/25 01:28:59;;;;;;;14.05;6.45;;;19.10;99.90;;;18.35;79.07;101736.81;4916995;28;20032;-73
2023/06/25 01:31:30;;;;;;;8.10;6.07;;;19.10;99.90;;;18.36;78.56;101733.22;4915214;28;20520;-73
2023/06/25 01:33:57;;;;;;;9.30;6.03;;;19.10;99.90;;;18.36;78.69;101727.88;4916918;28;20289;-73
2023/06/25 01:36:23;;;;;;;15.75;5.70;;;19.10;99.90;;;18.37;78.67;101729.56;4910026;29;20043;-72
2023/06/25 01:38:49;;;;;;;8.13;5.40;;;19.10;99.90;;;18.35;79.50;101727.00;4918645;28;20043;-72
2023/06/25 01:41:14;;;;;;;;;;;19.10;99.90;;;18.30;79.50;101730.94;4912184;28;20123;-72
2023/06/25 01:43:41;;;;;;;9.90;6.53;;;19.10;99.90;;;18.25;79.59;101731.22;4914600;28;19926;-73
2023/06/25 01:46:07;;;;;;;9.40;6.38;;;19.00;99.90;;;18.24;79.98;101725.00;4904088;28;20135;-72
2023/06/25 01:48:33;;;;;;;9.85;6.05;;;19.00;99.90;;;18.27;80.20;101725.78;4907613;28;20071;-73
2023/06/25 01:50:59;;;;;;;12.73;6.80;;;19.00;99.90;;;18.27;80.00;101731.94;4921589;28;20087;-72
2023/06/25 01:53:25;;;;;;;7.72;6.00;;;19.00;99.90;;;18.26;80.13;101726.75;4930405;28;20058;-72
2023/06/25 01:55:52;;;;;;;;;;;19.00;99.90;;;18.20;80.92;101715.50;4902924;28;20032;-73
2023/06/25 01:58:18;;;;;;;10.00;5.95;;;18.90;99.90;;;18.13;81.35;101719.50;4904406;29;20352;-72
2023/06/25 02:00:43;;;;;;;10.68;6.75;;;18.90;99.90;;;18.10;82.31;101716.16;4929294;28;20043;-73
2023/06/25 02:03:09;;;;;;;;;;;18.90;99.90;;;18.00;83.08;101713.22;4920514;28;20397;-73
2023/06/25 02:05:38;;;;;;;11.02;5.90;;;18.80;99.90;;;18.03;83.06;101711.25;4915001;28;19927;-73
2023/06/25 02:08:04;;;;;;;23.45;5.95;;;18.90;99.90;;;18.06;83.24;101712.84;4913943;28;20566;-73
2023/06/25 02:10:32;;;;;;;9.88;4.93;;;18.80;99.90;;;18.09;82.90;101711.81;4912167;28;20051;-73
2023/06/25 02:12:58;;;;;;;7.47;4.90;;;18.90;99.90;;;18.12;82.37;101715.16;4921656;28;20078;-73
2023/06/25 02:15:26;;;;;;;6.93;5.10;;;18.90;99.90;;;18.15;81.86;101703.44;4912926;28;21794;-72
2023/06/25 02:17:52;;;;;;;7.20;4.93;;;18.90;99.90;;;18.18;81.91;101704.06;4929879;28;20060;-72
2023/06/25 02:20:19;;;;;;;9.20;5.07;;;19.10;99.90;;;18.21;81.85;101711.03;4907559;29;20046;-72
2023/06/25 02:22:47;;;;;;;8.80;5.10;;;18.90;99.90;;;18.20;82.13;101707.50;4911910;29;20032;-74
2023/06/25 02:25:14;;;;;;;6.22;5.20;;;19.00;99.90;;;18.21;83.04;101714.56;4912767;29;20063;-73
2023/06/25 02:27:39;;;;;;;5.75;4.55;;;18.90;99.90;;;18.19;83.22;101710.28;4915301;28;20409;-73
2023/06/25 02:30:06;;;;;;;8.23;5.15;;;18.90;99.90;;;18.19;83.22;101708.47;4914269;28;20043;-73
2023/06/25 02:32:32;;;;;;;7.38;5.15;;;18.90;99.90;;;18.19;83.96;101705.78;4913545;28;20027;-73
2023/06/25 02:34:58;;;;;;;11.45;4.97;;;18.90;99.90;;;18.18;84.04;101714.72;4915950;28;20438;-74
2023/06/25 02:37:23;;;;;;;;;;;18.90;99.90;;;18.15;83.99;101712.28;4914087;28;20029;-73
2023/06/25 02:39:49;;;;;;;7.45;5.00;;;18.90;99.90;;;18.15;84.05;101706.94;4913362;29;19982;-73
2023/06/25 02:42:15;;;;;;;11.55;5.40;;;18.90;99.90;;;18.16;83.97;101706.00;4929731;28;20132;-72
2023/06/25 02:44:41;;;;;;;;;;;18.90;99.90;;;18.17;83.77;101706.84;4929101;28;20159;-73
2023/06/25 02:47:07;;;;;;;9.18;5.55;;;18.90;99.90;;;18.19;83.46;101695.13;4914801;28;20405;-72
2023/06/25 02:49:33;;;;;;;8.05;5.47;;;18.90;99.90;;;18.20;83.50;101696.84;4911597;28;20098;-72
2023/06/25 02:51:59;;;;;;;13.93;5.90;;;18.90;99.90;;;18.21;84.12;101708.38;4928889;28;20118;-72
2023/06/25 02:54:24;;;;;;;;;;;18.90;99.90;;;18.19;84.42;101700.47;4894836;28;20052;-72
2023/06/25 02:56:52;;;;;;;12.13;5.22;;;18.90;99.90;;;18.14;85.01;101696.38;4927870;28;19921;-72
2023/06/25 02:59:17;;;;;;;8.90;5.68;;;18.90;99.90;;;18.15;85.29;101698.94;4906375;28;20063;-71
2023/06/25 03:01:43;;;;;;;11.98;5.60;;;18.90;99.90;;;18.18;84.90;101696.06;4925702;28;20048;-72
2023/06/25 03:04:09;;;;;;;;;;;18.90;99.90;;;18.19;84.96;101691.63;4908527;28;20039;-71
2023/06/25 03:06:35;;;;;;;7.85;5.70;;;19.00;99.90;;;18.21;84.53;101692.38;4918391;28;20606;-72
2023/06/25 03:09:01;;;;;;;;;;;18.90;99.90;;;18.23;84.23;101693.16;4918726;28;20100;-72
2023/06/25 03:11:26;;;;;;;8.40;5.15;;;19.00;99.90;;;18.27;84.16;101699.13;4905678;28;19915;-72
2023/06/25 03:13:52;;;;;;;9.63;5.18;;;19.00;99.90;;;18.31;83.83;101700.63;4913317;28;20638;-72
2023/06/25 03:16:18;;;;;;;;;;;19.10;99.90;;;18.33;84.13;101704.06;4909528;28;20139;-72
2023/06/25 03:18:44;;;;;;;11.85;5.88;;;19.10;99.90;;;18.35;85.12;101699.47;4896237;28;19925;-71
2023/06/25 03:21:09;;;;;;;7.38;5.50;;;19.10;99.90;;;18.34;86.63;101690.63;4927409;28;20102;-71
2023/06/25 03:23:35;;;;;;;9.10;5.32;;;19.10;99.90;;;18.37;86.69;101697.56;4914044;28;20032;-72
2023/06/25 03:26:01;;;;;;;;;;;19.10;99.90;;;18.37;86.78;101698.44;4919443;28;20032;-71
2023/06/25 03:28:27;;;;;;;8.35;5.68;;;19.10;99.90;;;18.39;86.80;101696.53;4912161;28;20009;-72
2023/06/25 03:30:53;;;;;;;;;;;19.10;99.90;;;18.39;87.18;101693.84;4913299;28;21007;-72
2023/06/25 03:33:18;;;;;;;10.82;5.95;;;19.10;99.90;;;18.40;87.18;101697.38;4905602;28;19966;-71
2023/06/25 03:35:44;;;;;;;;;;;19.10;99.90;;;18.39;87.37;101693.00;4880792;28;20041;-71
2023/06/25 03:38:10;;;;;;;9.35;4.85;;;19.10;99.90;;;18.40;87.11;101692.03;4893454;28;20383;-71
2023/06/25 03:40:37;;;;;;;13.80;5.80;;;19.20;99.90;;;18.45;87.87;101696.13;4912538;28;20113;-72
2023/06/25 03:43:03;;;;;;;10.02;5.68;;;19.20;99.90;;;18.51;88.70;101705.56;4902877;29;20032;-72
2023/06/25 03:45:29;;;;;;;7.55;5.80;;;19.30;99.90;;;18.53;89.12;101700.97;4906311;28;20437;-73
2023/06/25 03:47:55;;;;;;;11.48;6.15;;;19.30;99.90;;;18.56;89.15;101706.09;4915954;28;20050;-71
2023/06/25 03:50:21;;;;;;;8.65;6.25;;;19.30;99.90;;;18.58;89.14;101700.69;4919524;28;20041;-73
2023/06/25 03:52:46;;;;;;;10.75;6.03;;;19.30;99.90;;;18.62;89.15;101699.53;4897783;29;20131;-71
2023/06/25 03:55:12;;;;;;;10.18;5.95;;;19.40;99.90;;;18.66;89.56;101709.03;4901965;29;20051;-71
2023/06/25 03:57:38;;;;;;;12.90;6.38;;;19.40;99.90;;;18.72;90.04;101710.44;4913041;28;20517;-71
2023/06/25 04:00:05;;;;;;;11.32;6.15;;;19.40;99.90;;;18.75;90.04;101705.78;4903347;28;20176;-73
2023/06/25 04:02:31;;;;;;;6.57;5.78;;;19.50;99.90;;;18.80;89.70;101706.34;4919743;28;20047;-73
2023/06/25 04:04:57;;;;;;;9.65;6.18;;;19.60;99.90;;;18.87;89.58;101704.13;4928346;28;20468;-72
2023/06/25 04:07:23;;;;;;;;;;;19.60;99.90;;;18.90;88.89;101716.41;4908937;28;20028;-72
2023/06/25 04:09:48;;;;;;;10.02;6.40;;;19.60;99.90;;;18.92;88.69;101710.03;4912790;28;19919;-71
2023/06/25 04:12:14;;;;;;;7.53;6.22;;;19.60;99.90;;;18.97;88.31;101707.06;4903719;28;20050;-72
2023/06/25 04:14:40;;;;;;;;;;;19.60;99.90;;;19.01;88.36;101703.22;4911940;28;20079;-72
2023/06/25 04:17:06;;;;;;;7.82;6.40;;;19.70;99.90;;;19.04;88.78;101698.53;4896710;28;19954;-71
2023/06/25 04:19:31;;;;;;;;;;;19.70;99.90;;;19.10;88.56;101699.09;4910351;29;20032;-72
2023/06/25 04:21:57;;;;;;;8.43;6.32;;;19.80;99.90;;;19.14;88.17;101696.09;4911738;28;20112;-71
2023/06/25 04:24:23;;;;;;;8.82;5.78;;;19.90;99.90;;;19.23;88.03;101691.94;4903687;28;20079;-72
2023/06/25 04:26:49;;;;;;;;;;;19.90;99.90;;;19.30;87.58;101700.41;4919890;28;20040;-72
2023/06/25 04:29:14;;;;;;;12.07;7.43;;;20.00;99.90;;;19.34;86.26;101692.06;4911968;28;19933;-72
2023/06/25 04:31:40;;;;;;;12.10;7.97;;;20.00;99.90;;;19.41;84.37;101695.16;4919035;28;20150;-73
2023/06/25 04:34:07;;;;;;;;;;;20.10;99.90;;;19.49;83.63;101695.50;4912449;29;20039;-72
2023/06/25 04:36:33;;;;;;;12.15;7.40;;;20.20;99.90;;;19.56;83.27;101686.09;4926359;28;19923;-73
2023/06/25 04:38:59;;;;;;;10.63;7.10;;;20.20;99.90;;;19.64;82.74;101682.91;4919076;28;20077;-72
2023/06/25 04:41:25;;;;;;;10.13;7.60;;;20.30;99.90;;;19.72;81.69;101690.41;4909820;28;20032;-74
2023/06/25 04:43:50;;;;;;;14.57;7.72;;;20.40;99.90;;;19.80;80.92;101694.25;4911572;29;20035;-72
2023/06/25 04:46:16;;;;;;;;;;;20.40;99.90;;;19.86;80.06;101685.81;4911529;28;20054;-71
2023/06/25 04:48:46;;;;;;;11.73;6.88;;;20.50;99.90;;;19.92;80.72;101695.22;4907685;28;19915;-73
2023/06/25 04:51:13;;;;;;;12.80;7.20;;;20.60;99.90;;;19.97;80.54;101700.22;4890670;28;20382;-72
2023/06/25 04:53:39;;;;;;;10.60;7.25;;;20.60;99.90;;;20.01;79.88;101699.91;4927322;28;20183;-72
2023/06/25 04:56:05;;;;;;;11.75;7.38;;;20.70;99.90;;;20.08;79.24;101697.66;4923894;28;20531;-72
2023/06/25 04:58:31;;;;;;;12.38;7.65;;;20.80;99.90;;;20.15;78.73;101698.06;4906420;28;20122;-73
2023/06/25 05:00:57;;;;;;;;;;;20.80;99.90;;;20.24;78.46;101706.28;4915380;28;20506;-72
2023/06/25 05:03:23;;;;;;;11.32;6.93;;;20.90;99.90;;;20.32;78.74;101702.19;4906286;29;19922;-71
2023/06/25 05:05:48;;;;;;;10.60;7.30;;;21.00;99.90;;;20.41;78.90;101704.19;4914304;29;20123;-71
2023/06/25 05:08:14;;;;;;;;;;;21.00;99.90;;;20.49;78.86;101699.13;4915341;28;20130;-72
2023/06/25 05:10:42;;;;;;;12.45;6.85;;;21.20;99.90;;;20.57;77.60;101701.28;4915494;28;19919;-72
2023/06/25 05:13:08;;;;;;;9.52;7.03;;;21.20;99.90;;;20.69;77.28;101701.25;4906735;29;20047;-72
2023/06/25 05:15:33;;;;;;;11.65;7.10;;;21.30;99.90;;;20.81;77.43;101702.16;4915127;28;20044;-73
2023/06/25 05:17:59;;;;;;;8.90;7.22;;;21.40;99.90;;;20.92;76.78;101698.69;4907358;28;20040;-71
2023/06/25 05:20:25;;;;;;;;;;;21.50;99.90;;;21.01;76.83;101700.66;4917856;28;20044;-73
2023/06/25 05:22:51;;;;;;;10.82;7.35;;;21.60;99.90;;;21.08;76.51;101701.91;4905451;28;19927;-72
2023/06/25 05:25:16;;;;;;;;;;;21.60;99.90;;;21.14;76.81;101694.38;4914842;28;20056;-71
2023/06/25 05:27:42;;;;;;;9.85;6.72;;;21.70;99.90;;;21.21;76.16;101703.63;4929307;28;19915;-72
2023/06/25 05:30:08;;;;;;;;;;;21.80;99.90;;;21.27;76.09;101705.84;4924276;28;20106;-73
2023/06/25 05:32:34;;;;;;;9.07;6.03;;;21.90;99.90;;;21.34;75.25;101711.59;4912573;28;19915;-73
2023/06/25 05:35:00;;;;;;;9.15;6.53;;;21.90;99.90;;;21.41;75.40;101707.50;4915453;28;20043;-72
2023/06/25 05:37:25;;;;;;;;;;;22.00;99.90;;;21.47;75.53;101696.34;4929375;28;20037;-73
2023/06/25 05:39:51;;;;;;;14.07;6.97;;;22.10;99.90;;;21.55;75.39;101704.63;4900047;28;19919;-73
2023/06/25 05:42:17;;;;;;;;;;;22.10;99.90;;;21.64;75.49;101703.91;4929798;28;20047;-73
2023/06/25 05:44:43;;;;;;;9.90;6.82;;;22.20;99.90;;;21.74;75.01;101696.00;4913131;28;19918;-74
2023/06/25 05:47:09;;;;;;;8.45;6.05;;;22.30;99.90;;;21.88;74.67;101690.41;4915382;28;20409;-73
2023/06/25 05:49:34;;;;;;;8.60;6.10;;;22.40;99.90;;;22.04;74.46;101694.53;4898592;28;20032;-75
2023/06/25 05:52:00;;;;;;;;;;;22.50;99.90;;;22.21;74.33;101698.56;4914044;28;20147;-73
2023/06/25 05:54:26;;;;;;;15.32;6.45;;;22.70;99.90;;;22.32;73.68;101694.06;4911416;28;20402;-73
2023/06/25 05:56:52;;;;;;;;;;;22.80;99.90;;;22.51;73.24;101697.94;4908062;29;20050;-73
2023/06/25 05:59:17;;;;;;;8.77;7.30;;;23.00;99.90;;;22.65;72.74;101703.00;4916465;28;19926;-73
2023/06/25 06:01:43;;;;;;;14.43;7.05;;;23.20;99.90;;;22.82;72.26;101701.59;4894518;28;20039;-73
2023/06/25 06:04:09;;;;;;;;;;;23.20;99.90;;;23.03;72.07;101709.75;4923032;28;20032;-75
2023/06/25 06:06:35;;;;;;;9.50;6.93;;;23.50;99.90;;;23.13;70.38;101701.75;4914423;28;19927;-73
2023/06/25 06:09:01;;;;;;;8.95;6.70;;;23.60;99.90;;;23.21;69.68;101701.94;4905852;28;20040;-73
2023/06/25 06:11:27;;;;;;;10.38;7.03;;;23.70;99.90;;;23.26;69.09;101704.25;4927331;28;20032;-73
2023/06/25 06:13:52;;;;;;;10.95;6.15;;;23.80;99.90;;;23.30;69.03;101703.00;4906816;29;20052;-73
2023/06/25 06:16:18;;;;;;;8.32;6.45;;;23.80;99.90;;;23.38;67.97;101702.38;4918074;28;20123;-73
2023/06/25 06:18:44;;;;;;;8.95;6.82;;;23.90;99.90;;;23.48;68.16;101700.59;4907369;28;20035;-74
2023/06/25 06:21:10;;;;;;;10.13;6.95;;;24.00;99.90;;;23.53;67.90;101706.41;4912719;28;20131;-73
2023/06/25 06:23:36;;;;;;;9.50;6.63;;;24.10;99.90;;;23.63;67.15;101711.84;4905825;28;20039;-73
2023/06/25 06:26:01;;;;;;;12.95;6.97;;;24.20;99.90;;;23.70;66.81;101718.41;4908011;28;20048;-74
2023/06/25 06:28:27;;;;;;;;;;;24.20;99.90;;;23.76;66.17;101709.84;4922718;28;20032;-73
2023/06/25 06:30:53;;;;;;;11.57;6.13;;;24.30;99.90;;;23.84;66.08;101707.31;4913836;28;19942;-73
2023/06/25 06:33:19;;;;;;;9.25;6.47;;;24.40;99.90;;;23.98;65.14;101716.03;4903952;28;20412;-73
2023/06/25 06:35:44;;;;;;;51.50;7.32;;;24.40;99.90;;;24.00;65.28;101703.31;4913480;28;20036;-73
2023/06/25 06:38:10;;;;;;;8.63;5.85;;;24.60;99.90;;;24.23;65.04;101710.16;4930094;28;20047;-74
2023/06/25 06:40:36;;;;;;;8.55;6.43;;;24.70;99.90;;;24.44;64.75;101702.00;4911950;28;20042;-74
2023/06/25 06:43:02;;;;;;;9.98;6.13;;;24.90;99.90;;;24.76;63.88;101709.88;4912884;28;20175;-73
2023/06/25 06:45:27;;;;;;;9.70;5.53;;;25.10;99.90;;;24.95;61.67;101710.91;4912090;29;20108;-73
2023/06/25 06:47:53;;;;;;;10.10;5.70;;;25.30;99.90;;;25.22;62.99;101717.44;4918282;28;20044;-73
2023/06/25 06:50:19;;;;;;;8.40;5.50;;;25.40;99.90;;;25.18;60.54;101711.44;4906282;28;20059;-73
2023/06/25 06:52:45;;;;;;;10.40;5.53;;;25.50;99.90;;;25.18;60.57;101712.31;4901833;28;20067;-74
2023/06/25 06:55:11;;;;;;;9.90;5.80;;;25.70;99.90;;;25.60;60.42;101721.06;4920366;28;20038;-74
2023/06/25 06:57:37;;;;;;;8.13;5.25;;;25.90;99.90;;;26.16;58.80;101717.47;4914169;28;20353;-73
2023/06/25 07:00:06;;;;;;;9.45;5.20;;;26.40;99.90;;;26.70;57.00;101723.03;4918639;28;20039;-73
2023/06/25 07:02:31;;;;;;;6.32;4.85;;;26.80;99.90;;;27.00;56.19;101725.34;4912397;28;20039;-73
2023/06/25 07:04:57;;;;;;;9.27;5.55;;;27.00;99.90;;;27.14;55.71;101729.34;4927112;28;20543;-74
2023/06/25 07:07:23;;;;;;;14.63;5.78;;;27.20;99.90;;;27.16;55.56;101730.03;4904520;28;20436;-73
2023/06/25 07:09:53;;;;;;;6.53;4.75;;;27.30;99.90;;;27.30;54.61;101738.59;4928552;28;20035;-74
2023/06/25 07:12:20;;;;;;;5.40;4.60;;;27.40;99.90;;;27.35;55.59;101731.75;4926959;28;20051;-73
2023/06/25 07:14:46;;;;;;;7.45;4.57;;;27.60;99.90;;;27.39;54.44;101732.28;4914880;28;20090;-73
2023/06/25 07:17:12;;;;;;;8.25;4.80;;;27.60;99.90;;;27.50;54.58;101729.31;4918338;28;20040;-74
2023/06/25 07:19:37;;;;;;;8.13;4.78;;;27.70;99.90;;;27.44;54.55;101729.94;4927609;28;20035;-73
2023/06/25 07:22:04;;;;;;;10.73;4.28;;;27.80;99.90;;;27.60;54.79;101735.47;4917765;28;20044;-74
2023/06/25 07:24:29;;;;;;;6.47;4.07;;;27.90;99.90;;;27.74;53.70;101735.91;4919417;28;20038;-73
2023/06/25 07:26:55;;;;;;;5.40;4.00;;;28.00;99.90;;;27.90;52.89;101733.28;4921982;28;20032;-75
2023/06/25 07:29:21;;;;;;;9.15;4.05;;;28.10;99.90;;;28.11;53.62;101732.91;4895459;28;20120;-74
2023/06/25 07:31:47;;;;;;;6.22;4.28;;;28.00;99.90;;;27.70;54.28;101729.94;4902871;28;20094;-73
2023/06/25 07:34:13;;;;;;;8.13;4.10;;;28.20;99.90;;;28.23;53.16;101731.59;4914800;28;20039;-73
2023/06/25 07:36:38;;;;;;;6.97;4.20;;;28.50;99.70;;;28.76;50.48;101731.44;4912721;29;20035;-72
2023/06/25 07:39:04;;;;;;;9.48;5.18;;;28.80;99.30;;;28.86;50.01;101736.72;4910080;28;20054;-74
2023/06/25 07:41:30;;;;;;;6.93;4.60;;;29.10;99.80;;;29.53;49.10;101748.28;4919302;28;21492;-74
2023/06/25 07:43:56;;;;;;;6.13;4.35;;;29.60;99.40;;;29.87;48.67;101760.78;4912522;28;20437;-73
2023/06/25 07:46:25;;;;;;;5.45;4.30;;;30.00;98.50;;;30.53;47.21;101764.13;4904636;29;20059;-73
2023/06/25 07:48:51;;;;;;;11.07;4.05;;;30.50;97.50;;;30.94;46.02;101766.59;4916261;28;20043;-73
2023/06/25 07:51:17;;;;;;;6.35;3.97;;;30.80;97.10;;;31.09;45.49;101760.41;4911611;29;20036;-73
2023/06/25 07:53:43;;;;;;;5.25;3.65;;;31.10;96.70;;;31.34;44.76;101769.19;4916338;28;20547;-74
2023/06/25 07:56:08;;;;;;;10.48;4.03;;;31.20;95.90;;;31.57;45.16;101771.91;4914265;28;20040;-73
2023/06/25 07:58:34;;;;;;;6.95;4.00;;;31.50;95.40;;;32.01;44.54;101780.16;4894809;29;20091;-75
2023/06/25 08:01:00;;;;;;;7.65;3.90;;;31.70;94.50;;;32.18;43.32;101788.13;4911988;29;20040;-73
2023/06/25 08:03:26;;;;;;;4.28;3.50;;;32.00;94.60;;;32.51;43.03;101785.84;4912464;28;20034;-73
2023/06/25 08:05:52;;;;;;;10.23;3.80;;;32.50;94.80;;;33.28;41.74;101776.19;4925837;28;20056;-74
2023/06/25 08:08:19;;;;;;;5.82;3.38;;;33.20;94.20;;;34.12;40.78;101789.03;4904503;28;20036;-73
2023/06/25 08:10:44;;;;;;;6.47;3.33;;;33.90;93.40;;;34.83;40.22;101793.34;4912694;28;20044;-74
2023/06/25 08:13:10;;;;;;;6.93;3.38;;;34.40;92.10;;;35.28;38.91;101797.22;4925445;28;20535;-74
2023/06/25 08:15:36;;;;;;;7.13;3.35;;;34.70;90.20;;;35.29;38.03;101795.31;4920211;28;20044;-73
2023/06/25 08:18:02;;;;;;;6.80;3.15;;;34.70;89.50;;;34.70;38.19;101796.88;4903939;28;20039;-73
2023/06/25 08:20:29;;;;;;;8.02;3.25;;;34.10;90.00;;;33.47;40.39;101788.31;4927876;28;20036;-73
2023/06/25 08:22:55;;;;;;;6.47;3.40;;;33.20;89.50;;;32.00;41.39;101775.72;4926043;28;20027;-74
2023/06/25 08:25:25;;;;;;;8.88;3.42;;;32.40;91.20;;;31.41;43.95;101759.28;4901989;28;20044;-73
2023/06/25 08:27:51;;;;;;;6.22;3.33;;;32.40;92.50;;;31.33;43.25;101759.34;4904091;28;20423;-73
2023/06/25 08:30:18;;;;;;;6.20;3.33;;;31.80;92.50;;;31.53;43.87;101746.09;4919075;28;20657;-73
2023/06/25 08:32:44;;;;;;;10.25;3.67;;;31.80;93.00;;;31.77;43.42;101748.56;4903195;29;20507;-73
2023/06/25 08:35:10;;;;;;;5.18;3.40;;;31.90;92.70;;;32.13;42.22;101771.50;4910074;28;20047;-74
2023/06/25 08:37:36;;;;;;;4.63;3.30;;;32.20;92.10;;;32.52;40.94;101757.53;4917862;28;20027;-73
2023/06/25 08:40:02;;;;;;;6.82;3.60;;;32.50;90.60;;;32.50;40.87;101763.16;4909975;28;20050;-73
2023/06/25 08:42:28;;;;;;;8.98;3.20;;;32.60;91.90;;;32.69;41.37;101766.34;4902547;28;20051;-73
2023/06/25 08:44:56;;;;;;;5.43;3.30;;;32.80;91.90;;;33.07;40.43;101769.72;4919188;28;20040;-73
2023/06/25 08:47:26;;;;;;;21.08;3.80;;;32.90;90.00;;;32.92;40.79;101765.31;4901993;29;20050;-74
2023/06/25 08:49:54;;;;;;;6.10;3.50;;;33.00;90.50;;;32.96;40.59;101766.63;4916792;28;20039;-75
2023/06/25 08:52:26;;;;;;;6.63;3.42;;;33.00;89.00;;;32.88;39.88;101771.16;4912315;28;20032;-74
2023/06/25 08:54:53;;;;;;;8.23;2.90;;;32.90;91.20;;;32.89;41.89;101759.25;4914241;28;20040;-74
2023/06/25 08:57:19;;;;;;;7.53;3.53;;;32.80;89.50;;;32.63;40.25;101764.38;4901717;29;20056;-73
2023/06/25 08:59:45;;;;;;;3.97;3.00;;;32.70;90.50;;;32.39;40.89;101760.09;4902386;28;20032;-74
2023/06/25 09:02:11;;;;;;;4.50;3.30;;;32.40;90.40;;;32.03;41.41;101750.84;4911917;29;20060;-74
2023/06/25 09:04:37;;;;;;;4.75;2.88;;;32.20;91.40;;;31.96;42.40;101741.69;4902834;28;20389;-73
2023/06/25 09:07:19;;;;;;;3.90;2.80;;;31.90;90.50;;;31.23;42.57;101741.41;4910282;28;20107;-73
2023/06/25 09:09:52;;;;;;;5.43;3.40;;;31.40;90.60;;;30.65;43.46;101723.81;4930753;28;20039;-73
2023/06/25 09:12:24;;;;;;;5.25;2.80;;;31.10;91.60;;;30.51;44.47;101725.41;4921263;28;20123;-73
2023/06/25 09:14:50;;;;;;;10.07;3.65;;;30.70;91.30;;;30.02;44.48;101717.44;4927018;28;20048;-73
2023/06/25 09:17:30;;;;;;;4.10;3.15;;;30.50;92.10;;;29.81;44.20;101708.03;4912854;29;20040;-74
2023/06/25 09:20:06;;;;;;;5.40;2.97;;;30.10;93.00;;;29.54;46.47;101702.97;4925811;28;20824;-74
2023/06/25 09:22:33;;;;;;;6.97;3.17;;;29.80;92.70;;;29.15;46.54;101685.56;4911302;28;20517;-74
2023/06/25 09:25:00;;;;;;;5.40;2.97;;;29.70;93.30;;;29.15;46.57;101691.00;4913542;28;20032;-73
2023/06/25 09:27:31;;;;;;;6.63;3.20;;;29.60;93.60;;;29.08;47.11;101689.94;4902232;28;20598;-74
2023/06/25 09:30:04;;;;;;;12.60;3.50;;;29.50;94.20;;;29.22;47.60;101686.59;4906249;28;20054;-73
2023/06/25 09:32:30;;;;;;;5.18;2.97;;;29.50;93.60;;;29.30;46.97;101690.31;4913699;28;20051;-73
2023/06/25 09:35:03;;;;;;;4.50;3.08;;;29.50;93.30;;;29.37;46.44;101686.72;4913899;29;20062;-74
2023/06/25 09:37:34;;;;;;;5.93;3.00;;;29.60;93.80;;;29.54;45.59;101682.13;4914479;28;20063;-74
2023/06/25 09:40:01;;;;;;;5.63;3.47;;;29.80;94.00;;;29.72;46.05;101691.94;4916218;28;20702;-73
2023/06/25 09:42:30;;;;;;;5.22;3.25;;;29.90;93.80;;;29.84;45.18;101688.66;4912557;28;20429;-74
2023/06/25 09:44:59;;;;;;;5.32;3.35;;;30.00;93.30;;;29.93;44.94;101685.94;4915572;29;20051;-75
2023/06/25 09:47:28;;;;;;;9.68;3.20;;;30.10;92.50;;;29.92;44.92;101685.09;4916239;28;20036;-74
2023/06/25 09:49:55;;;;;;;3.95;3.33;;;30.10;93.90;;;29.95;46.46;101686.59;4929628;28;20044;-74
2023/06/25 09:52:27;;;;;;;3.90;3.30;;;30.00;93.90;;;29.64;46.38;101679.22;4931807;28;20040;-74
2023/06/25 09:54:53;;;;;;;5.45;3.42;;;29.70;93.30;;;28.96;47.20;101661.47;4912130;29;20409;-74
2023/06/25 09:57:25;;;;;;;5.82;3.55;;;29.80;93.60;;;29.34;46.68;101665.38;4906627;28;20040;-73
2023/06/25 09:59:51;;;;;;;4.45;3.05;;;29.80;93.30;;;29.63;45.98;101683.81;4930821;28;20059;-74
2023/06/25 10:02:18;;;;;;;5.45;3.13;;;30.00;93.80;;;29.89;45.59;101677.28;4899497;29;20058;-73
2023/06/25 10:04:44;;;;;;;5.85;3.13;;;30.20;94.30;;;30.19;46.15;101677.50;4914789;29;20035;-74
2023/06/25 10:07:14;;;;;;;3.83;2.83;;;30.00;92.90;;;29.44;46.12;101673.34;4916307;29;20035;-74
2023/06/25 10:09:57;;;;;;;4.15;2.70;;;30.00;93.20;;;29.67;45.67;101670.72;4908050;28;20063;-73
2023/06/25 10:12:23;;;;;;;3.85;3.30;;;30.00;93.10;;;29.58;45.91;101666.34;4915949;28;20077;-73
2023/06/25 10:14:49;;;;;;;4.05;3.08;;;29.90;93.20;;;29.45;46.49;101669.59;4914202;28;20028;-74